createdAt,value
2017-03-22T00:00:36.731Z,0
2017-03-22T00:01:37.336Z,0
2017-03-22T00:02:37.943Z,0
2017-03-22T00:03:38.551Z,0
2017-03-22T00:04:39.162Z,0
2017-03-22T00:05:39.773Z,0
2017-03-22T00:06:40.378Z,0
2017-03-22T00:07:40.986Z,0
2017-03-22T00:08:41.593Z,0
2017-03-22T00:09:42.207Z,0
2017-03-22T00:10:42.812Z,0
2017-03-22T00:11:43.420Z,0
2017-03-22T00:12:44.030Z,0
2017-03-22T00:13:44.638Z,0
2017-03-22T00:14:45.252Z,0
2017-03-22T00:15:45.856Z,0
2017-03-22T00:16:46.471Z,0
2017-03-22T00:17:47.072Z,0
2017-03-22T00:18:47.685Z,0
2017-03-22T00:19:48.290Z,0
2017-03-22T00:20:48.897Z,0
2017-03-22T00:21:49.505Z,0
2017-03-22T00:22:50.113Z,0
2017-03-22T00:23:50.721Z,0
2017-03-22T00:24:51.327Z,0
2017-03-22T00:25:51.934Z,0
2017-03-22T00:26:52.541Z,0
2017-03-22T00:27:53.148Z,0
2017-03-22T00:28:53.760Z,0
2017-03-22T00:29:54.373Z,0
2017-03-22T00:30:54.973Z,0
2017-03-22T00:31:55.581Z,0
2017-03-22T00:32:56.189Z,0
2017-03-22T00:33:56.800Z,0
2017-03-22T00:34:57.411Z,0
2017-03-22T00:35:58.014Z,0
2017-03-22T00:36:58.623Z,0
2017-03-22T00:37:59.237Z,0
2017-03-22T00:38:59.843Z,0
2017-03-22T00:40:00.452Z,0
2017-03-22T00:41:01.059Z,0
2017-03-22T00:42:01.667Z,0
2017-03-22T00:43:02.273Z,0
2017-03-22T00:44:02.880Z,0
2017-03-22T00:45:03.493Z,0
2017-03-22T00:46:04.098Z,0
2017-03-22T00:47:04.705Z,0
2017-03-22T00:48:05.318Z,0
2017-03-22T00:49:05.920Z,0
2017-03-22T00:50:06.528Z,0
2017-03-22T00:51:07.135Z,0
2017-03-22T00:52:07.744Z,0
2017-03-22T00:53:08.351Z,0
2017-03-22T00:54:08.956Z,0
2017-03-22T00:55:09.569Z,0
2017-03-22T00:56:10.171Z,0
2017-03-22T00:57:10.779Z,0
2017-03-22T00:58:11.386Z,0
2017-03-22T00:59:11.991Z,0
2017-03-22T01:00:12.598Z,0
2017-03-22T01:01:13.205Z,0
2017-03-22T01:02:13.812Z,0
2017-03-22T01:03:14.419Z,0
2017-03-22T01:04:15.025Z,0
2017-03-22T01:05:15.636Z,0
2017-03-22T01:06:16.240Z,0
2017-03-22T01:07:16.853Z,0
2017-03-22T01:08:17.459Z,0
2017-03-22T01:09:18.062Z,0
2017-03-22T01:10:18.668Z,0
2017-03-22T01:11:19.274Z,0
2017-03-22T01:12:19.880Z,0
2017-03-22T01:13:20.489Z,0
2017-03-22T01:14:21.096Z,0
2017-03-22T01:15:21.705Z,0
2017-03-22T01:16:22.314Z,0
2017-03-22T01:17:22.922Z,0
2017-03-22T01:18:23.532Z,0
2017-03-22T01:19:24.139Z,0
2017-03-22T01:20:24.746Z,0
2017-03-22T01:21:25.352Z,0
2017-03-22T01:22:25.964Z,0
2017-03-22T01:23:26.566Z,0
2017-03-22T01:24:27.179Z,0
2017-03-22T01:25:27.789Z,0
2017-03-22T01:26:28.394Z,0
2017-03-22T01:27:29.006Z,0
2017-03-22T01:28:29.615Z,0
2017-03-22T01:29:30.251Z,0
2017-03-22T01:30:30.858Z,0
2017-03-22T01:31:31.465Z,0
2017-03-22T01:32:32.074Z,0
2017-03-22T01:33:32.680Z,0
2017-03-22T01:34:33.286Z,0
2017-03-22T01:35:33.893Z,0
2017-03-22T01:36:34.504Z,0
2017-03-22T01:37:35.107Z,0
2017-03-22T01:38:35.719Z,0
2017-03-22T01:39:36.331Z,0
2017-03-22T01:40:36.968Z,0
2017-03-22T01:41:37.572Z,0
2017-03-22T01:42:38.178Z,0
2017-03-22T01:43:38.785Z,0
2017-03-22T01:44:39.396Z,0
2017-03-22T01:45:39.999Z,0
2017-03-22T01:46:40.605Z,0
2017-03-22T01:47:41.211Z,0
2017-03-22T01:48:41.823Z,0
2017-03-22T01:49:42.426Z,0
2017-03-22T01:50:43.035Z,0
2017-03-22T01:51:43.642Z,0
2017-03-22T01:52:44.256Z,0
2017-03-22T01:53:44.861Z,0
2017-03-22T01:54:45.469Z,0
2017-03-22T01:55:46.073Z,0
2017-03-22T01:56:46.681Z,0
2017-03-22T01:57:47.288Z,0
2017-03-22T01:58:47.894Z,0
2017-03-22T01:59:48.499Z,0
2017-03-22T02:00:49.105Z,0
2017-03-22T02:01:49.713Z,0
2017-03-22T02:02:50.317Z,0
2017-03-22T02:03:50.922Z,0
2017-03-22T02:04:51.529Z,0
2017-03-22T02:05:52.135Z,0
2017-03-22T02:06:52.742Z,0
2017-03-22T02:07:53.380Z,0
2017-03-22T02:08:53.987Z,0
2017-03-22T02:09:54.595Z,0
2017-03-22T02:10:55.201Z,0
2017-03-22T02:11:55.811Z,0
2017-03-22T02:12:56.421Z,0
2017-03-22T02:13:57.025Z,0
2017-03-22T02:14:57.635Z,0
2017-03-22T02:15:58.239Z,0
2017-03-22T02:16:58.847Z,0
2017-03-22T02:17:59.453Z,0
2017-03-22T02:19:00.059Z,0
2017-03-22T02:20:00.667Z,0
2017-03-22T02:21:01.275Z,0
2017-03-22T02:22:01.881Z,0
2017-03-22T02:23:02.492Z,0
2017-03-22T02:24:03.095Z,0
2017-03-22T02:25:03.702Z,0
2017-03-22T02:26:04.307Z,0
2017-03-22T02:27:04.913Z,0
2017-03-22T02:28:05.523Z,0
2017-03-22T02:29:06.127Z,0
2017-03-22T02:30:06.734Z,0
2017-03-22T02:31:07.345Z,0
2017-03-22T02:32:07.956Z,0
2017-03-22T02:33:08.561Z,0
2017-03-22T02:34:09.168Z,0
2017-03-22T02:35:09.784Z,0
2017-03-22T02:36:10.420Z,0
2017-03-22T02:37:11.033Z,0
2017-03-22T02:38:11.641Z,0
2017-03-22T02:39:12.249Z,0
2017-03-22T02:40:12.859Z,0
2017-03-22T02:41:13.460Z,0
2017-03-22T02:42:14.068Z,0
2017-03-22T02:43:14.677Z,0
2017-03-22T02:44:15.287Z,0
2017-03-22T02:45:15.891Z,0
2017-03-22T02:46:16.501Z,0
2017-03-22T02:47:17.105Z,0
2017-03-22T02:48:17.710Z,0
2017-03-22T02:49:18.326Z,0
2017-03-22T02:50:18.929Z,0
2017-03-22T02:51:19.538Z,0
2017-03-22T02:52:20.145Z,0
2017-03-22T02:53:20.757Z,0
2017-03-22T02:54:21.360Z,0
2017-03-22T02:55:21.965Z,0
2017-03-22T02:56:22.573Z,0
2017-03-22T02:57:23.182Z,0
2017-03-22T02:58:23.793Z,0
2017-03-22T02:59:24.400Z,0
2017-03-22T03:00:25.005Z,0
2017-03-22T03:01:25.610Z,0
2017-03-22T03:02:26.224Z,0
2017-03-22T03:03:26.824Z,0
2017-03-22T03:04:27.432Z,0
2017-03-22T03:05:28.037Z,0
2017-03-22T03:06:28.643Z,0
2017-03-22T03:07:29.249Z,0
2017-03-22T03:08:29.853Z,0
2017-03-22T03:09:30.466Z,0
2017-03-22T03:10:31.073Z,0
2017-03-22T03:11:31.676Z,0
2017-03-22T03:12:32.283Z,0
2017-03-22T03:13:32.943Z,0
2017-03-22T03:14:33.549Z,0
2017-03-22T03:15:34.156Z,0
2017-03-22T03:16:34.762Z,0
2017-03-22T03:17:35.374Z,0
2017-03-22T03:18:35.978Z,0
2017-03-22T03:19:36.583Z,0
2017-03-22T03:20:37.188Z,0
2017-03-22T03:21:37.794Z,0
2017-03-22T03:22:38.400Z,0
2017-03-22T03:23:39.006Z,0
2017-03-22T03:24:39.612Z,0
2017-03-22T03:25:40.217Z,0
2017-03-22T03:26:40.822Z,0
2017-03-22T03:27:41.433Z,0
2017-03-22T03:28:42.035Z,0
2017-03-22T03:29:42.642Z,0
2017-03-22T03:30:43.255Z,0
2017-03-22T03:31:43.863Z,0
2017-03-22T03:32:44.466Z,0
2017-03-22T03:33:45.073Z,0
2017-03-22T03:34:45.684Z,0
2017-03-22T03:35:46.287Z,0
2017-03-22T03:36:46.893Z,0
2017-03-22T03:37:47.504Z,0
2017-03-22T03:38:48.107Z,0
2017-03-22T03:39:48.715Z,0
2017-03-22T03:40:49.323Z,0
2017-03-22T03:41:49.929Z,0
2017-03-22T03:42:50.543Z,0
2017-03-22T03:43:51.148Z,0
2017-03-22T03:44:51.758Z,0
2017-03-22T03:45:52.362Z,0
2017-03-22T03:46:52.971Z,0
2017-03-22T03:47:53.575Z,0
2017-03-22T03:48:54.181Z,0
2017-03-22T03:49:54.793Z,0
2017-03-22T03:50:55.395Z,0
2017-03-22T03:51:56.002Z,0
2017-03-22T03:52:56.613Z,0
2017-03-22T03:53:57.217Z,0
2017-03-22T03:54:57.822Z,0
2017-03-22T03:55:58.428Z,0
2017-03-22T03:56:59.033Z,0
2017-03-22T03:57:59.645Z,0
2017-03-22T03:59:00.252Z,0
2017-03-22T04:00:00.855Z,0
2017-03-22T04:01:01.460Z,0
2017-03-22T04:02:02.068Z,0
2017-03-22T04:03:02.674Z,0
2017-03-22T04:04:03.285Z,0
2017-03-22T04:05:03.889Z,0
2017-03-22T04:06:04.496Z,0
2017-03-22T04:07:05.105Z,0
2017-03-22T04:08:05.717Z,0
2017-03-22T04:09:06.320Z,0
2017-03-22T04:10:06.924Z,0
2017-03-22T04:11:07.530Z,0
2017-03-22T04:12:08.137Z,0
2017-03-22T04:13:08.741Z,0
2017-03-22T04:14:09.354Z,0
2017-03-22T04:15:09.956Z,0
2017-03-22T04:16:10.570Z,0
2017-03-22T04:17:11.171Z,0
2017-03-22T04:18:11.775Z,0
2017-03-22T04:19:12.381Z,0
2017-03-22T04:20:12.986Z,0
2017-03-22T04:21:13.591Z,0
2017-03-22T04:22:14.197Z,0
2017-03-22T04:23:14.806Z,0
2017-03-22T04:24:15.437Z,0
2017-03-22T04:25:16.042Z,0
2017-03-22T04:26:16.648Z,0
2017-03-22T04:27:17.253Z,0
2017-03-22T04:28:17.859Z,0
2017-03-22T04:29:18.469Z,0
2017-03-22T04:30:19.080Z,0
2017-03-22T04:31:19.683Z,0
2017-03-22T04:32:20.294Z,0
2017-03-22T04:33:20.896Z,0
2017-03-22T04:34:21.502Z,0
2017-03-22T04:35:22.108Z,0
2017-03-22T04:36:22.717Z,0
2017-03-22T04:37:23.321Z,0
2017-03-22T04:38:23.926Z,0
2017-03-22T04:39:24.537Z,0
2017-03-22T04:40:25.140Z,0
2017-03-22T04:41:25.752Z,0
2017-03-22T04:42:26.358Z,0
2017-03-22T04:43:26.970Z,0
2017-03-22T04:44:27.610Z,0
2017-03-22T04:45:28.185Z,0
2017-03-22T04:46:28.793Z,0
2017-03-22T04:47:29.395Z,0
2017-03-22T04:48:30.002Z,0
2017-03-22T04:49:30.609Z,0
2017-03-22T04:50:31.216Z,0
2017-03-22T04:51:31.822Z,0
2017-03-22T04:52:32.434Z,0
2017-03-22T04:53:33.041Z,0
2017-03-22T04:54:33.644Z,0
2017-03-22T04:55:34.250Z,0
2017-03-22T04:56:34.855Z,0
2017-03-22T04:57:35.461Z,0
2017-03-22T04:58:36.067Z,0
2017-03-22T04:59:36.677Z,0
2017-03-22T05:00:37.279Z,0
2017-03-22T05:01:37.885Z,0
2017-03-22T05:02:38.490Z,0
2017-03-22T05:03:39.098Z,0
2017-03-22T05:04:39.705Z,0
2017-03-22T05:05:40.314Z,0
2017-03-22T05:06:40.926Z,0
2017-03-22T05:07:41.531Z,0
2017-03-22T05:08:42.136Z,0
2017-03-22T05:09:42.742Z,0
2017-03-22T05:10:43.399Z,0
2017-03-22T05:11:44.006Z,0
2017-03-22T05:12:44.610Z,0
2017-03-22T05:13:45.217Z,0
2017-03-22T05:14:45.824Z,0
2017-03-22T05:15:46.430Z,0
2017-03-22T05:16:47.042Z,0
2017-03-22T05:17:47.654Z,0
2017-03-22T05:18:48.259Z,0
2017-03-22T05:19:48.862Z,0
2017-03-22T05:20:49.472Z,5
2017-03-22T05:21:50.078Z,5
2017-03-22T05:22:50.685Z,5
2017-03-22T05:23:51.293Z,5
2017-03-22T05:24:51.898Z,5
2017-03-22T05:25:52.506Z,5
2017-03-22T05:26:53.113Z,5
2017-03-22T05:27:53.728Z,10
2017-03-22T05:28:54.333Z,10
2017-03-22T05:29:54.941Z,10
2017-03-22T05:30:55.550Z,10
2017-03-22T05:31:56.161Z,10
2017-03-22T05:32:56.769Z,5
2017-03-22T05:33:57.377Z,5
2017-03-22T05:34:57.984Z,5
2017-03-22T05:35:58.590Z,5
2017-03-22T05:36:59.199Z,10
2017-03-22T05:37:59.806Z,10
2017-03-22T05:39:00.422Z,10
2017-03-22T05:40:01.032Z,10
2017-03-22T05:41:01.638Z,15
2017-03-22T05:42:02.253Z,15
2017-03-22T05:43:02.865Z,15
2017-03-22T05:44:03.472Z,15
2017-03-22T05:45:04.079Z,15
2017-03-22T05:46:04.724Z,15
2017-03-22T05:47:05.330Z,15
2017-03-22T05:48:05.939Z,15
2017-03-22T05:49:06.552Z,15
2017-03-22T05:50:07.157Z,20
2017-03-22T05:51:07.772Z,20
2017-03-22T05:52:08.384Z,20
2017-03-22T05:53:08.990Z,25
2017-03-22T05:54:09.605Z,25
2017-03-22T05:55:10.211Z,30
2017-03-22T05:56:10.820Z,30
2017-03-22T05:57:11.428Z,30
2017-03-22T05:58:12.037Z,30
2017-03-22T05:59:12.644Z,30
2017-03-22T06:00:13.252Z,30
2017-03-22T06:01:13.861Z,35
2017-03-22T06:02:14.472Z,35
2017-03-22T06:03:15.081Z,40
2017-03-22T06:04:15.695Z,45
2017-03-22T06:05:16.302Z,45
2017-03-22T06:06:16.910Z,50
2017-03-22T06:07:17.517Z,50
2017-03-22T06:08:18.127Z,55
2017-03-22T06:09:18.741Z,50
2017-03-22T06:10:19.346Z,45
2017-03-22T06:11:19.955Z,35
2017-03-22T06:12:20.568Z,30
2017-03-22T06:13:21.178Z,35
2017-03-22T06:14:21.784Z,40
2017-03-22T06:15:22.396Z,45
2017-03-22T06:16:23.006Z,45
2017-03-22T06:17:23.612Z,45
2017-03-22T06:18:24.222Z,55
2017-03-22T06:19:24.833Z,65
2017-03-22T06:20:25.444Z,90
2017-03-22T06:21:26.059Z,105
2017-03-22T06:22:26.668Z,105
2017-03-22T06:23:27.279Z,100
2017-03-22T06:24:27.890Z,95
2017-03-22T06:25:28.498Z,95
2017-03-22T06:26:29.111Z,105
2017-03-22T06:27:29.724Z,115
2017-03-22T06:28:30.336Z,130
2017-03-22T06:29:30.948Z,130
2017-03-22T06:30:31.559Z,130
2017-03-22T06:31:32.170Z,125
2017-03-22T06:32:32.831Z,120
2017-03-22T06:33:33.445Z,125
2017-03-22T06:34:34.055Z,135
2017-03-22T06:35:34.668Z,140
2017-03-22T06:36:35.284Z,150
2017-03-22T06:37:35.894Z,145
2017-03-22T06:38:36.510Z,150
2017-03-22T06:39:37.126Z,180
2017-03-22T06:40:37.736Z,185
2017-03-22T06:41:38.348Z,105
2017-03-22T06:42:38.965Z,100
2017-03-22T06:43:39.577Z,95
2017-03-22T06:44:40.192Z,100
2017-03-22T06:45:40.807Z,90
2017-03-22T06:46:41.423Z,80
2017-03-22T06:47:42.030Z,75
2017-03-22T06:48:42.645Z,70
2017-03-22T06:49:43.254Z,60
2017-03-22T06:50:43.866Z,50
2017-03-22T06:51:44.477Z,40
2017-03-22T06:52:45.087Z,35
2017-03-22T06:53:45.697Z,35
2017-03-22T06:54:46.307Z,35
2017-03-22T06:55:47.024Z,30
2017-03-22T06:56:47.566Z,25
2017-03-22T06:57:48.177Z,25
2017-03-22T06:58:48.785Z,25
2017-03-22T06:59:49.394Z,20
2017-03-22T07:00:50.005Z,25
2017-03-22T07:01:50.618Z,30
2017-03-22T07:02:51.225Z,35
2017-03-22T07:03:51.835Z,40
2017-03-22T07:04:52.446Z,40
2017-03-22T07:05:53.087Z,45
2017-03-22T07:06:53.711Z,50
2017-03-22T07:07:54.342Z,60
2017-03-22T07:08:54.954Z,65
2017-03-22T07:09:55.571Z,75
2017-03-22T07:10:56.178Z,95
2017-03-22T07:11:56.788Z,105
2017-03-22T07:12:57.401Z,115
2017-03-22T07:13:58.065Z,110
2017-03-22T07:14:58.679Z,100
2017-03-22T07:15:59.286Z,95
2017-03-22T07:16:59.898Z,115
2017-03-22T07:18:00.560Z,135
2017-03-22T07:19:01.228Z,190
2017-03-22T07:20:01.841Z,210
2017-03-22T07:21:02.449Z,265
2017-03-22T07:22:03.066Z,265
2017-03-22T07:23:03.676Z,255
2017-03-22T07:24:04.290Z,245
2017-03-22T07:25:04.900Z,245
2017-03-22T07:26:05.517Z,265
2017-03-22T07:27:06.132Z,260
2017-03-22T07:28:06.742Z,200
2017-03-22T07:29:07.355Z,190
2017-03-22T07:30:07.974Z,180
2017-03-22T07:31:08.584Z,150
2017-03-22T07:32:09.203Z,140
2017-03-22T07:33:09.865Z,140
2017-03-22T07:34:10.475Z,145
2017-03-22T07:35:11.088Z,170
2017-03-22T07:36:11.701Z,195
2017-03-22T07:37:12.342Z,250
2017-03-22T07:38:12.956Z,240
2017-03-22T07:39:13.567Z,230
2017-03-22T07:40:14.179Z,235
2017-03-22T07:41:14.792Z,250
2017-03-22T07:42:15.407Z,245
2017-03-22T07:43:16.019Z,230
2017-03-22T07:44:16.632Z,220
2017-03-22T07:45:17.251Z,230
2017-03-22T07:46:17.894Z,245
2017-03-22T07:47:18.507Z,285
2017-03-22T07:48:19.118Z,330
2017-03-22T07:49:19.734Z,345
2017-03-22T07:50:20.354Z,360
2017-03-22T07:51:20.964Z,390
2017-03-22T07:52:21.578Z,410
2017-03-22T07:53:22.197Z,410
2017-03-22T07:54:22.805Z,375
2017-03-22T07:55:23.421Z,430
2017-03-22T07:56:24.034Z,335
2017-03-22T07:57:24.648Z,295
2017-03-22T07:58:25.264Z,315
2017-03-22T07:59:25.881Z,470
2017-03-22T08:00:26.492Z,265
2017-03-22T08:01:27.108Z,245
2017-03-22T08:02:27.724Z,220
2017-03-22T08:03:28.338Z,170
2017-03-22T08:04:28.953Z,165
2017-03-22T08:05:29.568Z,145
2017-03-22T08:06:30.182Z,135
2017-03-22T08:07:30.798Z,120
2017-03-22T08:08:31.413Z,110
2017-03-22T08:09:32.029Z,115
2017-03-22T08:10:32.676Z,115
2017-03-22T08:11:33.293Z,125
2017-03-22T08:12:33.910Z,135
2017-03-22T08:13:34.520Z,140
2017-03-22T08:14:35.133Z,145
2017-03-22T08:15:35.751Z,155
2017-03-22T08:16:36.365Z,155
2017-03-22T08:17:36.978Z,145
2017-03-22T08:18:37.596Z,135
2017-03-22T08:19:38.205Z,125
2017-03-22T08:20:38.823Z,125
2017-03-22T08:21:39.433Z,135
2017-03-22T08:22:40.050Z,140
2017-03-22T08:23:40.663Z,140
2017-03-22T08:24:41.275Z,140
2017-03-22T08:25:41.889Z,130
2017-03-22T08:26:42.504Z,115
2017-03-22T08:27:43.116Z,110
2017-03-22T08:28:43.732Z,120
2017-03-22T08:29:44.347Z,135
2017-03-22T08:30:44.965Z,165
2017-03-22T08:31:45.592Z,185
2017-03-22T08:32:46.189Z,195
2017-03-22T08:33:46.802Z,180
2017-03-22T08:34:47.421Z,165
2017-03-22T08:35:48.040Z,160
2017-03-22T08:36:48.650Z,170
2017-03-22T08:37:49.264Z,180
2017-03-22T08:38:49.876Z,180
2017-03-22T08:39:50.493Z,160
2017-03-22T08:40:51.104Z,130
2017-03-22T08:41:51.723Z,115
2017-03-22T08:42:52.338Z,110
2017-03-22T08:43:52.954Z,125
2017-03-22T08:44:53.599Z,145
2017-03-22T08:45:54.177Z,145
2017-03-22T08:46:54.793Z,150
2017-03-22T08:47:55.412Z,165
2017-03-22T08:48:56.062Z,150
2017-03-22T08:49:56.677Z,160
2017-03-22T08:50:57.320Z,180
2017-03-22T08:51:57.934Z,180
2017-03-22T08:52:58.548Z,175
2017-03-22T08:53:59.160Z,150
2017-03-22T08:54:59.772Z,130
2017-03-22T08:56:00.445Z,120
2017-03-22T08:57:01.057Z,130
2017-03-22T08:58:01.676Z,125
2017-03-22T08:59:02.287Z,125
2017-03-22T09:00:02.901Z,130
2017-03-22T09:01:03.513Z,150
2017-03-22T09:02:04.127Z,145
2017-03-22T09:03:04.747Z,130
2017-03-22T09:04:05.357Z,125
2017-03-22T09:05:05.968Z,105
2017-03-22T09:06:06.586Z,95
2017-03-22T09:07:07.247Z,95
2017-03-22T09:08:07.862Z,100
2017-03-22T09:09:08.489Z,105
2017-03-22T09:10:09.139Z,95
2017-03-22T09:11:09.782Z,105
2017-03-22T09:12:10.395Z,95
2017-03-22T09:13:11.010Z,90
2017-03-22T09:14:11.626Z,110
2017-03-22T09:15:12.237Z,115
2017-03-22T09:16:12.849Z,110
2017-03-22T09:17:13.462Z,120
2017-03-22T09:18:14.075Z,120
2017-03-22T09:19:14.688Z,110
2017-03-22T09:20:15.305Z,95
2017-03-22T09:21:15.968Z,95
2017-03-22T09:22:16.576Z,80
2017-03-22T09:23:17.187Z,90
2017-03-22T09:24:17.798Z,80
2017-03-22T09:25:18.442Z,80
2017-03-22T09:26:19.052Z,75
2017-03-22T09:27:19.665Z,80
2017-03-22T09:28:20.283Z,75
2017-03-22T09:29:20.889Z,75
2017-03-22T09:30:21.506Z,70
2017-03-22T09:31:22.115Z,70
2017-03-22T09:32:22.725Z,70
2017-03-22T09:33:23.343Z,70
2017-03-22T09:34:23.954Z,70
2017-03-22T09:35:24.615Z,75
2017-03-22T09:36:25.236Z,80
2017-03-22T09:37:25.843Z,85
2017-03-22T09:38:26.452Z,85
2017-03-22T09:39:27.064Z,90
2017-03-22T09:40:27.682Z,95
2017-03-22T09:41:28.291Z,95
2017-03-22T09:42:28.903Z,90
2017-03-22T09:43:29.514Z,90
2017-03-22T09:44:30.129Z,90
2017-03-22T09:45:30.738Z,85
2017-03-22T09:46:31.352Z,90
2017-03-22T09:47:31.962Z,90
2017-03-22T09:48:32.576Z,95
2017-03-22T09:49:33.187Z,105
2017-03-22T09:50:33.805Z,105
2017-03-22T09:51:34.420Z,105
2017-03-22T09:52:35.026Z,105
2017-03-22T09:53:35.639Z,100
2017-03-22T09:54:36.258Z,100
2017-03-22T09:55:36.867Z,105
2017-03-22T09:56:37.485Z,105
2017-03-22T09:57:38.099Z,100
2017-03-22T09:58:38.708Z,95
2017-03-22T09:59:39.357Z,85
2017-03-22T10:00:39.972Z,75
2017-03-22T10:01:40.597Z,95
2017-03-22T10:02:41.198Z,110
2017-03-22T10:03:41.816Z,125
2017-03-22T10:04:42.423Z,135
2017-03-22T10:05:43.037Z,135
2017-03-22T10:06:43.650Z,145
2017-03-22T10:07:44.264Z,135
2017-03-22T10:08:44.874Z,130
2017-03-22T10:09:45.493Z,125
2017-03-22T10:10:46.106Z,95
2017-03-22T10:11:46.719Z,75
2017-03-22T10:12:47.329Z,75
2017-03-22T10:13:47.942Z,70
2017-03-22T10:14:48.561Z,60
2017-03-22T10:15:49.176Z,75
2017-03-22T10:16:49.785Z,65
2017-03-22T10:17:50.401Z,75
2017-03-22T10:18:51.010Z,80
2017-03-22T10:19:51.624Z,100
2017-03-22T10:20:52.236Z,110
2017-03-22T10:21:52.848Z,105
2017-03-22T10:22:53.467Z,115
2017-03-22T10:23:54.083Z,120
2017-03-22T10:24:54.741Z,130
2017-03-22T10:25:55.353Z,155
2017-03-22T10:26:55.965Z,200
2017-03-22T10:27:56.578Z,195
2017-03-22T10:28:57.194Z,170
2017-03-22T10:29:57.802Z,130
2017-03-22T10:30:58.422Z,150
2017-03-22T10:31:59.032Z,160
2017-03-22T10:32:59.643Z,150
2017-03-22T10:34:00.255Z,130
2017-03-22T10:35:00.874Z,120
2017-03-22T10:36:01.483Z,115
2017-03-22T10:37:02.096Z,105
2017-03-22T10:38:02.710Z,110
2017-03-22T10:39:03.327Z,110
2017-03-22T10:40:03.937Z,120
2017-03-22T10:41:04.549Z,140
2017-03-22T10:42:05.166Z,155
2017-03-22T10:43:05.778Z,165
2017-03-22T10:44:06.392Z,170
2017-03-22T10:45:07.009Z,160
2017-03-22T10:46:07.619Z,160
2017-03-22T10:47:08.236Z,130
2017-03-22T10:48:08.847Z,120
2017-03-22T10:49:09.466Z,100
2017-03-22T10:50:10.075Z,90
2017-03-22T10:51:10.686Z,85
2017-03-22T10:52:11.297Z,85
2017-03-22T10:53:11.909Z,85
2017-03-22T10:54:12.520Z,70
2017-03-22T10:55:13.130Z,75
2017-03-22T10:56:13.743Z,70
2017-03-22T10:57:14.356Z,60
2017-03-22T10:58:14.968Z,60
2017-03-22T10:59:15.579Z,65
2017-03-22T11:00:16.189Z,70
2017-03-22T11:01:16.804Z,75
2017-03-22T11:02:17.411Z,85
2017-03-22T11:03:18.023Z,85
2017-03-22T11:04:18.634Z,80
2017-03-22T11:05:19.252Z,70
2017-03-22T11:06:19.861Z,70
2017-03-22T11:07:20.472Z,65
2017-03-22T11:08:21.081Z,70
2017-03-22T11:09:21.699Z,80
2017-03-22T11:10:22.312Z,90
2017-03-22T11:11:22.927Z,95
2017-03-22T11:12:23.537Z,95
2017-03-22T11:13:24.150Z,90
2017-03-22T11:14:24.762Z,95
2017-03-22T11:15:25.374Z,95
2017-03-22T11:16:25.985Z,95
2017-03-22T11:17:26.600Z,95
2017-03-22T11:18:27.209Z,90
2017-03-22T11:19:27.823Z,90
2017-03-22T11:20:28.434Z,90
2017-03-22T11:21:29.054Z,80
2017-03-22T11:22:29.658Z,70
2017-03-22T11:23:30.269Z,70
2017-03-22T11:24:30.881Z,90
2017-03-22T11:25:31.492Z,100
2017-03-22T11:26:32.112Z,110
2017-03-22T11:27:32.721Z,115
2017-03-22T11:28:33.334Z,165
2017-03-22T11:29:33.947Z,145
2017-03-22T11:30:34.560Z,125
2017-03-22T11:31:35.172Z,105
2017-03-22T11:32:35.783Z,90
2017-03-22T11:33:36.396Z,85
2017-03-22T11:34:37.007Z,75
2017-03-22T11:35:37.619Z,70
2017-03-22T11:36:38.230Z,75
2017-03-22T11:37:38.839Z,85
2017-03-22T11:38:39.451Z,95
2017-03-22T11:39:40.063Z,135
2017-03-22T11:40:40.683Z,155
2017-03-22T11:41:41.292Z,165
2017-03-22T11:42:41.953Z,155
2017-03-22T11:43:42.643Z,140
2017-03-22T11:44:43.256Z,130
2017-03-22T11:45:43.868Z,130
2017-03-22T11:46:44.481Z,140
2017-03-22T11:47:45.145Z,125
2017-03-22T11:48:45.757Z,110
2017-03-22T11:49:46.370Z,105
2017-03-22T11:50:46.983Z,105
2017-03-22T11:51:47.600Z,115
2017-03-22T11:52:48.217Z,135
2017-03-22T11:53:48.827Z,145
2017-03-22T11:54:49.439Z,135
2017-03-22T11:55:50.052Z,145
2017-03-22T11:56:50.669Z,135
2017-03-22T11:57:51.334Z,130
2017-03-22T11:58:51.948Z,120
2017-03-22T11:59:52.558Z,110
2017-03-22T12:00:53.177Z,105
2017-03-22T12:01:53.785Z,115
2017-03-22T12:02:54.396Z,115
2017-03-22T12:03:55.010Z,115
2017-03-22T12:04:55.626Z,115
2017-03-22T12:05:56.239Z,125
2017-03-22T12:06:56.848Z,130
2017-03-22T12:07:57.465Z,135
2017-03-22T12:08:58.081Z,125
2017-03-22T12:09:58.697Z,110
2017-03-22T12:10:59.314Z,95
2017-03-22T12:11:59.925Z,110
2017-03-22T12:13:00.567Z,115
2017-03-22T12:14:01.184Z,105
2017-03-22T12:15:01.834Z,100
2017-03-22T12:16:02.479Z,95
2017-03-22T12:17:03.097Z,100
2017-03-22T12:18:03.706Z,100
2017-03-22T12:19:04.324Z,100
2017-03-22T12:20:04.936Z,100
2017-03-22T12:21:05.553Z,110
2017-03-22T12:22:06.164Z,130
2017-03-22T12:23:06.776Z,175
2017-03-22T12:24:07.392Z,225
2017-03-22T12:25:08.001Z,185
2017-03-22T12:26:08.614Z,135
2017-03-22T12:27:09.228Z,115
2017-03-22T12:28:09.838Z,100
2017-03-22T12:29:10.450Z,95
2017-03-22T12:30:11.065Z,110
2017-03-22T12:31:11.678Z,115
2017-03-22T12:32:12.296Z,125
2017-03-22T12:33:12.910Z,155
2017-03-22T12:34:13.520Z,130
2017-03-22T12:35:14.139Z,110
2017-03-22T12:36:14.749Z,105
2017-03-22T12:37:15.360Z,95
2017-03-22T12:38:15.972Z,90
2017-03-22T12:39:16.636Z,85
2017-03-22T12:40:17.247Z,80
2017-03-22T12:41:17.861Z,80
2017-03-22T12:42:18.472Z,80
2017-03-22T12:43:19.084Z,80
2017-03-22T12:44:19.701Z,80
2017-03-22T12:45:20.313Z,75
2017-03-22T12:46:20.925Z,75
2017-03-22T12:47:21.543Z,70
2017-03-22T12:48:22.161Z,70
2017-03-22T12:49:22.770Z,75
2017-03-22T12:50:23.381Z,70
2017-03-22T12:51:23.997Z,70
2017-03-22T12:52:24.611Z,65
2017-03-22T12:53:25.219Z,65
2017-03-22T12:54:25.831Z,70
2017-03-22T12:55:26.456Z,75
2017-03-22T12:56:27.106Z,80
2017-03-22T12:57:27.720Z,75
2017-03-22T12:58:28.332Z,75
2017-03-22T12:59:28.948Z,70
2017-03-22T13:00:29.558Z,70
2017-03-22T13:01:30.169Z,70
2017-03-22T13:02:30.780Z,70
2017-03-22T13:03:31.397Z,65
2017-03-22T13:04:32.007Z,60
2017-03-22T13:05:32.621Z,60
2017-03-22T13:06:33.237Z,65
2017-03-22T13:07:33.849Z,75
2017-03-22T13:08:34.463Z,85
2017-03-22T13:09:35.079Z,85
2017-03-22T13:10:35.694Z,80
2017-03-22T13:11:36.303Z,70
2017-03-22T13:12:36.915Z,70
2017-03-22T13:13:37.557Z,70
2017-03-22T13:14:38.168Z,70
2017-03-22T13:15:38.779Z,80
2017-03-22T13:16:39.390Z,95
2017-03-22T13:17:40.003Z,105
2017-03-22T13:18:40.615Z,105
2017-03-22T13:19:41.228Z,90
2017-03-22T13:20:41.890Z,80
2017-03-22T13:21:42.502Z,70
2017-03-22T13:22:43.118Z,60
2017-03-22T13:23:43.733Z,60
2017-03-22T13:24:44.348Z,65
2017-03-22T13:25:44.959Z,75
2017-03-22T13:26:45.568Z,85
2017-03-22T13:27:46.180Z,95
2017-03-22T13:28:46.792Z,95
2017-03-22T13:29:47.452Z,90
2017-03-22T13:30:48.063Z,95
2017-03-22T13:31:48.677Z,115
2017-03-22T13:32:49.290Z,130
2017-03-22T13:33:49.906Z,125
2017-03-22T13:34:50.523Z,130
2017-03-22T13:35:51.133Z,125
2017-03-22T13:36:51.744Z,120
2017-03-22T13:37:52.363Z,100
2017-03-22T13:38:52.973Z,95
2017-03-22T13:39:53.583Z,90
2017-03-22T13:40:54.196Z,95
2017-03-22T13:41:54.810Z,125
2017-03-22T13:42:55.471Z,130
2017-03-22T13:43:56.085Z,105
2017-03-22T13:44:56.700Z,95
2017-03-22T13:45:57.344Z,85
2017-03-22T13:46:57.960Z,80
2017-03-22T13:47:58.570Z,75
2017-03-22T13:48:59.431Z,75
2017-03-22T13:50:00.114Z,70
2017-03-22T13:51:00.819Z,70
2017-03-22T13:52:01.430Z,65
2017-03-22T13:53:02.049Z,65
2017-03-22T13:54:02.697Z,70
2017-03-22T13:55:03.302Z,80
2017-03-22T13:56:03.915Z,90
2017-03-22T13:57:04.527Z,95
2017-03-22T13:58:05.156Z,100
2017-03-22T13:59:05.774Z,100
2017-03-22T14:00:06.386Z,100
2017-03-22T14:01:06.999Z,110
2017-03-22T14:02:07.610Z,115
2017-03-22T14:03:08.222Z,125
2017-03-22T14:04:08.839Z,130
2017-03-22T14:05:09.448Z,95
2017-03-22T14:06:10.065Z,80
2017-03-22T14:07:10.680Z,75
2017-03-22T14:08:11.287Z,75
2017-03-22T14:09:11.899Z,80
2017-03-22T14:10:12.512Z,75
2017-03-22T14:11:13.122Z,70
2017-03-22T14:12:13.733Z,70
2017-03-22T14:13:14.345Z,65
2017-03-22T14:14:14.958Z,70
2017-03-22T14:15:15.570Z,65
2017-03-22T14:16:16.188Z,65
2017-03-22T14:17:16.802Z,55
2017-03-22T14:18:17.407Z,45
2017-03-22T14:19:18.068Z,40
2017-03-22T14:20:18.684Z,40
2017-03-22T14:21:19.344Z,50
2017-03-22T14:22:19.959Z,55
2017-03-22T14:23:20.569Z,65
2017-03-22T14:24:21.180Z,65
2017-03-22T14:25:21.796Z,60
2017-03-22T14:26:22.411Z,65